Time;durP1;ratioP1;P1;durP2;ratioP2;P2;SDS_P1;SDS_P2;PMS_P1;PMS_P2;Temp;Humidity;BMP_temperature;BMP_pressure;BME280_temperature;BME280_humidity;BME280_pressure;Samples;Min_cycle;Max_cycle;Signal;HPM_P1;HPM_P2
2022/08/26 00:05:00;;;;;;;25.77;9.77;;;;;;;;;;10362584;28;20444;-71
2022/08/26 00:10:05;;;;;;;18.02;9.77;;;;;;;;;;10362705;28;20030;-73
2022/08/26 00:15:09;;;;;;;22.15;9.88;;;;;;;;;;10360157;28;20069;-73
2022/08/26 00:20:14;;;;;;;18.48;9.68;;;;;;;;;;10344293;28;20125;-71
2022/08/26 00:25:18;;;;;;;17.73;9.10;;;;;;;;;;10360004;28;20038;-73
2022/08/26 00:30:26;;;;;;;23.27;9.50;;;;;;;;;;10359162;28;20046;-72
2022/08/26 00:35:29;;;;;;;16.95;7.80;;;;;;;;;;10359249;28;20049;-72
2022/08/26 00:40:38;;;;;;;25.25;9.98;;;;;;;;;;10358332;28;20525;-72
2022/08/26 00:45:44;;;;;;;20.73;9.45;;;;;;;;;;10360976;28;20660;-72
2022/08/26 00:50:49;;;;;;;20.95;9.50;;;;;;;;;;10360011;28;20042;-73
2022/08/26 00:55:55;;;;;;;19.45;8.73;;;;;;;;;;10360251;28;20475;-72
2022/08/26 01:00:58;;;;;;;20.38;10.15;;;;;;;;;;10361806;28;20475;-73
2022/08/26 01:06:02;;;;;;;20.63;9.40;;;;;;;;;;10359834;28;20053;-73
2022/08/26 01:11:08;;;;;;;19.83;9.85;;;;;;;;;;10354727;28;20038;-72
2022/08/26 01:16:16;;;;;;;18.88;10.13;;;;;;;;;;10356861;28;20042;-74
2022/08/26 01:21:19;;;;;;;;;;;;;;;;;;10352395;28;20510;-72
2022/08/26 01:26:27;;;;;;;21.25;9.98;;;;;;;;;;10358543;28;19921;-72
2022/08/26 01:31:33;;;;;;;20.17;10.75;;;;;;;;;;10352170;28;20397;-72
2022/08/26 01:36:36;;;;;;;22.05;10.73;;;;;;;;;;10360968;28;20049;-72
2022/08/26 01:41:40;;;;;;;24.05;9.93;;;;;;;;;;10355141;28;20129;-72
2022/08/26 01:46:47;;;;;;;26.30;11.15;;;;;;;;;;10359780;28;20061;-73
2022/08/26 01:51:54;;;;;;;18.88;9.27;;;;;;;;;;10365698;28;20497;-73
2022/08/26 01:56:58;;;;;;;21.58;11.38;;;;;;;;;;10366274;28;20042;-73
2022/08/26 02:02:01;;;;;;;23.00;11.02;;;;;;;;;;10363430;28;20030;-72
2022/08/26 02:07:05;;;;;;;20.77;10.80;;;;;;;;;;10368267;28;20037;-72
2022/08/26 02:12:11;;;;;;;25.23;10.82;;;;;;;;;;10360061;28;20049;-72
2022/08/26 02:17:17;;;;;;;24.20;10.88;;;;;;;;;;10362838;28;20037;-72
2022/08/26 02:22:23;;;;;;;19.80;10.32;;;;;;;;;;10361932;28;20372;-72
2022/08/26 02:27:29;;;;;;;23.85;11.25;;;;;;;;;;10350015;28;20064;-72
2022/08/26 02:32:34;;;;;;;27.77;11.15;;;;;;;;;;10365126;28;20038;-73
2022/08/26 02:37:37;;;;;;;24.35;10.30;;;;;;;;;;10370566;28;20093;-72
2022/08/26 02:42:45;;;;;;;22.73;10.80;;;;;;;;;;10363572;28;20518;-72
2022/08/26 02:47:48;;;;;;;25.25;11.60;;;;;;;;;;10365590;28;20045;-72
2022/08/26 02:52:52;;;;;;;21.20;11.10;;;;;;;;;;10364110;28;20062;-73
2022/08/26 02:57:56;;;;;;;20.33;10.32;;;;;;;;;;10355792;28;20046;-72
2022/08/26 03:02:59;;;;;;;21.77;10.52;;;;;;;;;;10362281;28;20041;-73
2022/08/26 03:08:02;;;;;;;;;;;;;;;;;;10345986;28;20409;-72
2022/08/26 03:13:09;;;;;;;22.15;9.45;;;;;;;;;;10362675;28;19928;-73
2022/08/26 03:18:12;;;;;;;24.83;11.25;;;;;;;;;;10360450;28;20343;-72
2022/08/26 03:23:15;;;;;;;24.33;11.00;;;;;;;;;;10362514;28;20034;-72
2022/08/26 03:28:21;;;;;;;26.05;11.88;;;;;;;;;;10367171;28;20502;-72
2022/08/26 03:33:24;;;;;;;20.05;10.77;;;;;;;;;;10347731;28;20056;-72
2022/08/26 03:38:27;;;;;;;26.27;11.70;;;;;;;;;;10359372;28;20498;-72
2022/08/26 03:43:31;;;;;;;24.05;10.15;;;;;;;;;;10358400;28;20407;-74
2022/08/26 03:48:35;;;;;;;24.75;10.50;;;;;;;;;;10371144;28;20072;-73
2022/08/26 03:53:37;;;;;;;19.60;10.68;;;;;;;;;;10360044;28;20496;-73
2022/08/26 03:58:43;;;;;;;25.67;11.30;;;;;;;;;;10361982;28;20511;-73
2022/08/26 04:03:58;;;;;;;24.42;11.40;;;;;;;;;;10357540;28;20046;-73
2022/08/26 04:09:04;;;;;;;25.23;11.18;;;;;;;;;;10358647;28;20042;-73
2022/08/26 04:14:09;;;;;;;27.23;12.25;;;;;;;;;;10359976;28;20113;-74
2022/08/26 04:19:14;;;;;;;24.02;12.32;;;;;;;;;;10342319;28;20050;-72
2022/08/26 04:24:17;;;;;;;21.60;11.95;;;;;;;;;;10359887;28;20034;-72
2022/08/26 04:29:20;;;;;;;;;;;;;;;;;;10363266;28;20402;-72
2022/08/26 04:34:24;;;;;;;19.33;10.20;;;;;;;;;;10359537;28;19921;-73
2022/08/26 04:39:30;;;;;;;20.88;9.75;;;;;;;;;;10358992;28;20132;-74
2022/08/26 04:44:34;;;;;;;23.85;10.48;;;;;;;;;;10344321;28;20066;-73
2022/08/26 04:49:38;;;;;;;20.30;9.88;;;;;;;;;;10354496;28;20137;-73
2022/08/26 04:54:43;;;;;;;20.55;10.48;;;;;;;;;;10352759;28;20042;-73
2022/08/26 04:59:46;;;;;;;19.88;9.18;;;;;;;;;;10351363;28;20137;-72
2022/08/26 05:04:52;;;;;;;21.15;9.98;;;;;;;;;;10342858;28;20080;-73
2022/08/26 05:09:56;;;;;;;22.50;10.13;;;;;;;;;;10349510;28;20479;-73
2022/08/26 05:14:59;;;;;;;21.83;11.07;;;;;;;;;;10353439;28;20032;-74
2022/08/26 05:20:04;;;;;;;25.50;11.75;;;;;;;;;;10343519;28;20077;-74
2022/08/26 05:25:08;;;;;;;22.38;12.20;;;;;;;;;;10336660;28;20499;-72
2022/08/26 05:30:15;;;;;;;21.25;9.05;;;;;;;;;;10350695;28;20496;-73
2022/08/26 05:35:19;;;;;;;19.73;10.95;;;;;;;;;;10348578;28;20082;-74
2022/08/26 05:40:24;;;;;;;21.88;10.85;;;;;;;;;;10343399;28;20049;-72
2022/08/26 05:45:28;;;;;;;24.65;11.70;;;;;;;;;;10357985;28;20461;-72
2022/08/26 05:50:40;;;;;;;24.13;10.35;;;;;;;;;;10340511;28;20102;-73
2022/08/26 05:55:46;;;;;;;24.95;11.95;;;;;;;;;;10354790;28;20088;-73
2022/08/26 06:00:56;;;;;;;24.00;10.93;;;;;;;;;;10356290;28;20069;-73
2022/08/26 06:06:02;;;;;;;23.90;10.32;;;;;;;;;;10356363;28;20402;-73
2022/08/26 06:11:07;;;;;;;22.05;11.15;;;;;;;;;;10355330;28;20411;-73
2022/08/26 06:16:21;;;;;;;27.33;11.50;;;;;;;;;;10356116;28;20075;-73
2022/08/26 06:21:28;;;;;;;20.00;10.38;;;;;;;;;;10354930;28;20066;-73
2022/08/26 06:26:32;;;;;;;25.13;12.02;;;;;;;;;;10352534;28;20612;-73
2022/08/26 06:31:38;;;;;;;23.15;11.18;;;;;;;;;;10354391;28;20045;-74
2022/08/26 06:36:43;;;;;;;18.70;9.48;;;;;;;;;;10347807;28;20504;-72
2022/08/26 06:41:56;;;;;;;19.00;9.70;;;;;;;;;;10355898;28;20038;-73
2022/08/26 06:47:02;;;;;;;22.30;10.18;;;;;;;;;;10355915;28;20105;-73
2022/08/26 06:52:07;;;;;;;16.73;9.57;;;;;;;;;;10355199;28;20545;-72
2022/08/26 06:57:10;;;;;;;21.23;9.85;;;;;;;;;;10356560;28;20079;-73
2022/08/26 07:02:13;;;;;;;;;;;;;;;;;;10354647;28;20117;-73
2022/08/26 07:07:18;;;;;;;19.23;8.80;;;;;;;;;;10353549;28;19930;-73
2022/08/26 07:12:24;;;;;;;18.90;8.80;;;;;;;;;;10348475;28;20487;-75
2022/08/26 07:17:28;;;;;;;15.70;8.02;;;;;;;;;;10349476;28;20041;-74
2022/08/26 07:22:33;;;;;;;16.40;8.63;;;;;;;;;;10348673;28;20227;-74
2022/08/26 07:27:36;;;;;;;13.55;8.05;;;;;;;;;;10351092;28;20054;-73
2022/08/26 07:32:40;;;;;;;12.82;8.07;;;;;;;;;;10352510;28;20068;-75
2022/08/26 07:37:44;;;;;;;15.43;7.95;;;;;;;;;;10343321;28;20124;-73
2022/08/26 07:42:48;;;;;;;13.20;8.35;;;;;;;;;;10342422;28;20389;-72
2022/08/26 07:47:50;;;;;;;13.68;8.02;;;;;;;;;;10356486;28;20057;-72
2022/08/26 07:52:55;;;;;;;12.65;7.55;;;;;;;;;;10353393;28;20119;-72
2022/08/26 07:57:58;;;;;;;12.63;8.10;;;;;;;;;;10349380;28;20042;-71
2022/08/26 08:03:04;;;;;;;12.13;7.85;;;;;;;;;;10351114;28;20061;-72
2022/08/26 08:08:09;;;;;;;15.88;8.43;;;;;;;;;;10355972;28;20050;-72
2022/08/26 08:13:30;;;;;;;14.50;8.60;;;;;;;;;;10352840;28;20140;-72
2022/08/26 08:18:33;;;;;;;17.45;9.00;;;;;;;;;;10352527;28;20046;-72
2022/08/26 08:23:38;;;;;;;15.10;9.00;;;;;;;;;;10354225;28;20042;-71
2022/08/26 08:28:42;;;;;;;21.17;8.95;;;;;;;;;;10345954;28;20092;-74
2022/08/26 08:33:45;;;;;;;17.08;8.70;;;;;;;;;;10344550;28;20095;-72
2022/08/26 08:38:51;;;;;;;15.40;8.50;;;;;;;;;;10353393;28;20229;-71
2022/08/26 08:43:54;;;;;;;25.17;9.13;;;;;;;;;;10353484;28;20490;-71
2022/08/26 08:48:59;;;;;;;18.40;8.65;;;;;;;;;;10333925;28;20046;-72
2022/08/26 08:54:04;;;;;;;14.45;8.18;;;;;;;;;;10347768;28;20073;-71
2022/08/26 08:59:14;;;;;;;16.33;8.57;;;;;;;;;;10353017;28;20052;-73
2022/08/26 09:04:29;;;;;;;14.57;8.20;;;;;;;;;;10351196;28;20069;-72
2022/08/26 09:09:35;;;;;;;15.40;8.27;;;;;;;;;;10348537;28;20160;-72
2022/08/26 09:14:38;;;;;;;14.95;8.18;;;;;;;;;;10348589;28;20121;-72
2022/08/26 09:19:43;;;;;;;15.57;7.85;;;;;;;;;;10344750;28;20512;-73
2022/08/26 09:24:48;;;;;;;15.30;7.95;;;;;;;;;;10350488;28;20045;-73
2022/08/26 09:29:53;;;;;;;17.33;8.45;;;;;;;;;;10345395;28;20038;-75
2022/08/26 09:34:57;;;;;;;15.80;8.55;;;;;;;;;;10347297;28;20129;-73
2022/08/26 09:40:14;;;;;;;14.48;8.23;;;;;;;;;;10349377;28;20081;-73
2022/08/26 09:45:26;;;;;;;15.68;8.45;;;;;;;;;;10346793;28;20141;-73
2022/08/26 09:50:30;;;;;;;16.05;7.63;;;;;;;;;;10345417;28;20056;-72
2022/08/26 09:55:35;;;;;;;14.48;8.52;;;;;;;;;;10353681;28;20473;-74
2022/08/26 10:00:40;;;;;;;11.85;7.40;;;;;;;;;;10342612;28;20517;-76
2022/08/26 10:05:46;;;;;;;15.70;7.43;;;;;;;;;;10352309;28;20645;-74
2022/08/26 10:10:52;;;;;;;12.35;8.07;;;;;;;;;;10350141;28;20049;-74
2022/08/26 10:16:01;;;;;;;14.45;8.60;;;;;;;;;;10355892;28;20045;-74
2022/08/26 10:21:09;;;;;;;18.40;7.88;;;;;;;;;;10341475;28;20133;-74
2022/08/26 10:26:18;;;;;;;16.50;7.90;;;;;;;;;;10354922;28;20070;-74
2022/08/26 10:31:27;;;;;;;19.25;7.85;;;;;;;;;;10360107;28;20137;-74
2022/08/26 10:36:49;;;;;;;11.27;7.93;;;;;;;;;;10354486;28;20050;-74
2022/08/26 10:42:16;;;;;;;11.82;8.05;;;;;;;;;;10349688;28;20629;-77
2022/08/26 10:47:23;;;;;;;13.68;7.38;;;;;;;;;;10362824;28;20046;-75
2022/08/26 10:52:34;;;;;;;12.75;7.32;;;;;;;;;;10356810;28;20038;-74
2022/08/26 10:57:43;;;;;;;13.35;7.55;;;;;;;;;;10349772;28;20048;-74
2022/08/26 11:02:49;;;;;;;15.77;7.72;;;;;;;;;;10351132;28;20196;-74
2022/08/26 11:07:54;;;;;;;15.48;7.70;;;;;;;;;;10415192;23;20038;-74
2022/08/26 11:13:02;;;;;;;14.70;7.20;;;;;;;;;;10317551;28;20057;-74
2022/08/26 11:18:07;;;;;;;13.82;6.85;;;;;;;;;;10317027;28;20042;-76
2022/08/26 11:23:29;;;;;;;15.65;6.47;;;;;;;;;;10314615;28;20045;-74
2022/08/26 11:28:40;;;;;;;15.20;6.57;;;;;;;;;;10311546;28;20043;-74
2022/08/26 11:33:47;;;;;;;13.30;6.15;;;;;;;;;;10316895;28;20038;-75
2022/08/26 11:38:54;;;;;;;13.43;6.80;;;;;;;;;;10315000;28;20038;-76
2022/08/26 11:44:00;;;;;;;11.98;5.18;;;;;;;;;;10312968;28;20089;-74
2022/08/26 11:49:05;;;;;;;11.07;5.10;;;;;;;;;;10310068;28;20231;-75
2022/08/26 11:54:09;;;;;;;11.98;5.25;;;;;;;;;;10316746;28;20294;-74
2022/08/26 11:59:17;;;;;;;11.20;6.88;;;;;;;;;;10314820;28;20133;-75
2022/08/26 12:04:24;;;;;;;10.55;5.50;;;;;;;;;;10313791;28;20038;-75
2022/08/26 12:09:30;;;;;;;10.05;5.80;;;;;;;;;;10315404;28;20415;-74
2022/08/26 12:14:34;;;;;;;7.85;5.40;;;;;;;;;;10313155;28;21870;-75
2022/08/26 12:19:41;;;;;;;9.45;5.90;;;;;;;;;;10312653;28;20042;-73
2022/08/26 12:24:47;;;;;;;8.65;5.53;;;;;;;;;;10314053;28;20134;-74
2022/08/26 12:30:07;;;;;;;17.77;10.25;;;;;;;;;;10311174;28;20129;-75
2022/08/26 12:35:11;;;;;;;15.00;6.18;;;;;;;;;;10309736;28;20042;-74
2022/08/26 12:40:25;;;;;;;13.48;6.40;;;;;;;;;;10313601;28;20635;-74
2022/08/26 12:45:31;;;;;;;12.02;5.85;;;;;;;;;;10316251;28;20121;-74
2022/08/26 12:50:35;;;;;;;10.32;5.50;;;;;;;;;;10306322;28;20575;-74
2022/08/26 12:55:41;;;;;;;9.70;5.20;;;;;;;;;;10296180;28;20256;-75
2022/08/26 13:00:47;;;;;;;12.68;5.50;;;;;;;;;;10313737;28;20533;-74
2022/08/26 13:05:51;;;;;;;8.48;5.18;;;;;;;;;;10312012;28;20038;-73
2022/08/26 13:11:03;;;;;;;9.90;5.47;;;;;;;;;;10312230;28;20252;-75
2022/08/26 13:16:07;;;;;;;10.23;5.35;;;;;;;;;;10317643;28;20491;-74
2022/08/26 13:21:16;;;;;;;11.55;5.40;;;;;;;;;;10308679;28;20052;-74
2022/08/26 13:26:19;;;;;;;12.80;5.22;;;;;;;;;;10315418;28;20047;-74
2022/08/26 13:31:24;;;;;;;6.90;4.95;;;;;;;;;;10295968;28;20189;-74
2022/08/26 13:36:28;;;;;;;10.70;4.95;;;;;;;;;;10313778;28;20046;-73
2022/08/26 13:41:32;;;;;;;8.35;4.88;;;;;;;;;;10315514;28;20125;-74
2022/08/26 13:46:36;;;;;;;9.50;5.20;;;;;;;;;;10317759;28;20126;-74
2022/08/26 13:51:40;;;;;;;9.77;5.22;;;;;;;;;;10319701;28;20073;-74
2022/08/26 13:56:43;;;;;;;10.43;4.60;;;;;;;;;;10319805;28;20420;-75
2022/08/26 14:01:48;;;;;;;10.75;4.75;;;;;;;;;;10316188;28;20046;-71
2022/08/26 14:06:50;;;;;;;12.07;5.28;;;;;;;;;;10319918;28;20144;-71
2022/08/26 14:11:53;;;;;;;11.88;5.20;;;;;;;;;;10321225;28;20400;-71
2022/08/26 14:16:58;;;;;;;10.80;5.45;;;;;;;;;;10310731;28;20124;-72
2022/08/26 14:22:02;;;;;;;13.88;5.95;;;;;;;;;;10315044;28;20049;-71
2022/08/26 14:27:05;;;;;;;10.32;5.28;;;;;;;;;;10313229;28;20492;-71
2022/08/26 14:32:11;;;;;;;11.40;5.68;;;;;;;;;;10316664;28;20056;-71
2022/08/26 14:37:14;;;;;;;8.60;4.75;;;;;;;;;;10317714;28;20522;-71
2022/08/26 14:42:22;;;;;;;11.95;4.10;;;;;;;;;;10319446;28;20058;-70
2022/08/26 14:47:26;;;;;;;9.85;4.28;;;;;;;;;;10296670;28;20560;-71
2022/08/26 14:54:10;;;;;;;12.38;4.78;;;;;;;;;;10315264;28;20050;-71
2022/08/26 14:57:51;;;;;;;9.07;4.90;;;;;;;;;;10309803;28;20142;-72
2022/08/26 15:02:55;;;;;;;11.43;4.38;;;;;;;;;;10308191;28;20362;-71
2022/08/26 15:07:59;;;;;;;8.95;4.50;;;;;;;;;;10315092;28;20574;-71
2022/08/26 15:13:02;;;;;;;8.18;4.47;;;;;;;;;;10321679;28;20042;-71
2022/08/26 15:18:06;;;;;;;13.93;5.28;;;;;;;;;;10319832;28;20042;-71
2022/08/26 15:23:10;;;;;;;10.27;5.07;;;;;;;;;;10315163;28;20046;-72
2022/08/26 15:28:13;;;;;;;12.32;5.78;;;;;;;;;;10316881;28;20030;-70
2022/08/26 15:33:18;;;;;;;10.57;4.78;;;;;;;;;;10297583;28;20045;-71
2022/08/26 15:38:21;;;;;;;11.27;4.80;;;;;;;;;;10320508;28;20122;-71
2022/08/26 15:43:25;;;;;;;12.35;5.47;;;;;;;;;;10317883;28;20097;-70
2022/08/26 15:48:32;;;;;;;14.70;6.20;;;;;;;;;;10319510;28;20046;-70
2022/08/26 15:53:35;;;;;;;14.60;5.70;;;;;;;;;;10322251;28;20616;-70
2022/08/26 15:58:38;;;;;;;10.70;6.10;;;;;;;;;;10322991;28;20042;-70
2022/08/26 16:03:46;;;;;;;12.40;5.95;;;;;;;;;;10314989;28;20435;-71
2022/08/26 16:08:50;;;;;;;12.60;6.05;;;;;;;;;;10316840;28;20105;-72
2022/08/26 16:13:53;;;;;;;11.30;5.40;;;;;;;;;;10313608;28;20464;-71
2022/08/26 16:18:57;;;;;;;14.95;6.03;;;;;;;;;;10315743;28;20542;-70
2022/08/26 16:24:00;;;;;;;15.40;5.68;;;;;;;;;;10318068;28;20168;-70
2022/08/26 16:29:05;;;;;;;16.77;6.15;;;;;;;;;;10317334;28;20109;-71
2022/08/26 16:34:09;;;;;;;13.20;5.63;;;;;;;;;;10302761;28;20038;-73
2022/08/26 16:39:12;;;;;;;14.05;6.20;;;;;;;;;;10316281;28;20076;-71
2022/08/26 16:44:15;;;;;;;14.95;5.82;;;;;;;;;;10315985;28;20038;-70
2022/08/26 16:49:19;;;;;;;12.32;6.50;;;;;;;;;;10315769;28;20395;-70
2022/08/26 16:54:22;;;;;;;21.77;6.40;;;;;;;;;;10314588;28;20078;-72
2022/08/26 16:59:25;;;;;;;10.98;6.32;;;;;;;;;;10311499;28;20098;-71
2022/08/26 17:04:30;;;;;;;16.08;6.65;;;;;;;;;;10294574;28;20381;-70
2022/08/26 17:09:34;;;;;;;14.75;5.85;;;;;;;;;;10312399;28;20054;-72
2022/08/26 17:14:37;;;;;;;16.08;6.15;;;;;;;;;;10312552;28;20113;-70
2022/08/26 17:19:42;;;;;;;12.52;6.13;;;;;;;;;;10311607;28;20038;-71
2022/08/26 17:24:48;;;;;;;14.43;6.15;;;;;;;;;;10307952;28;20140;-71
2022/08/26 17:29:51;;;;;;;14.80;5.93;;;;;;;;;;10309184;28;20039;-70
2022/08/26 17:34:56;;;;;;;11.52;6.18;;;;;;;;;;10309347;28;20137;-72
2022/08/26 17:39:59;;;;;;;16.13;6.45;;;;;;;;;;10317186;28;20508;-73
2022/08/26 17:45:02;;;;;;;16.65;6.63;;;;;;;;;;10312557;28;20035;-72
2022/08/26 17:50:09;;;;;;;13.73;6.57;;;;;;;;;;10311992;28;20118;-72
2022/08/26 17:55:13;;;;;;;14.38;7.65;;;;;;;;;;10297796;28;20035;-72
2022/08/26 18:00:19;;;;;;;13.55;6.70;;;;;;;;;;10313690;28;20133;-72
2022/08/26 18:05:23;;;;;;;15.07;6.28;;;;;;;;;;10313933;28;20158;-73
2022/08/26 18:10:26;;;;;;;13.82;7.03;;;;;;;;;;10318314;28;20283;-73
2022/08/26 18:15:30;;;;;;;16.63;6.60;;;;;;;;;;10317237;28;20100;-73
2022/08/26 18:20:34;;;;;;;18.95;6.53;;;;;;;;;;10317650;28;20077;-73
2022/08/26 18:25:39;;;;;;;13.85;6.72;;;;;;;;;;10317913;28;20062;-72
2022/08/26 18:30:42;;;;;;;16.67;6.68;;;;;;;;;;10313748;28;20049;-72
2022/08/26 18:35:47;;;;;;;14.60;6.45;;;;;;;;;;10318071;28;20480;-74
2022/08/26 18:40:51;;;;;;;14.07;6.25;;;;;;;;;;10324860;28;20030;-72
2022/08/26 18:46:01;;;;;;;16.02;6.93;;;;;;;;;;10306218;28;20452;-74
2022/08/26 18:51:05;;;;;;;23.30;7.38;;;;;;;;;;10306997;28;20069;-73
2022/08/26 18:56:11;;;;;;;13.52;5.65;;;;;;;;;;10321504;28;20042;-75
2022/08/26 19:01:25;;;;;;;13.43;5.38;;;;;;;;;;10321068;28;20050;-73
2022/08/26 19:06:31;;;;;;;9.05;3.97;;;;;;;;;;10323765;28;20042;-72
2022/08/26 19:11:34;;;;;;;9.40;3.60;;;;;;;;;;10322545;28;20054;-72
2022/08/26 19:16:47;;;;;;;7.10;2.65;;;;;;;;;;10324247;28;20035;-74
2022/08/26 19:21:52;;;;;;;7.72;2.80;;;;;;;;;;10322152;28;20504;-73
2022/08/26 19:26:56;;;;;;;6.63;2.50;;;;;;;;;;10319007;28;20068;-76
2022/08/26 19:32:01;;;;;;;8.27;2.80;;;;;;;;;;10321021;28;20057;-76
2022/08/26 19:37:05;;;;;;;4.40;1.88;;;;;;;;;;10304473;28;20096;-77
2022/08/26 19:42:09;;;;;;;3.50;1.98;;;;;;;;;;10320887;28;20050;-75
2022/08/26 19:47:12;;;;;;;3.92;1.95;;;;;;;;;;10319099;28;20543;-75
2022/08/26 19:52:16;;;;;;;6.88;1.85;;;;;;;;;;10322497;28;20038;-75
2022/08/26 19:57:19;;;;;;;12.13;3.58;;;;;;;;;;10321492;28;20424;-75
2022/08/26 20:02:22;;;;;;;20.90;6.45;;;;;;;;;;10303603;28;20061;-76
2022/08/26 20:07:27;;;;;;;18.13;6.90;;;;;;;;;;10316537;28;20114;-76
2022/08/26 20:12:32;;;;;;;17.40;5.68;;;;;;;;;;10323182;28;20050;-75
2022/08/26 20:17:35;;;;;;;11.80;4.80;;;;;;;;;;10317142;28;20265;-76
2022/08/26 20:22:42;;;;;;;12.82;5.30;;;;;;;;;;10318428;28;20448;-74
2022/08/26 20:27:45;;;;;;;12.23;5.10;;;;;;;;;;10316426;28;20035;-75
2022/08/26 20:32:48;;;;;;;15.98;5.82;;;;;;;;;;10298482;28;20238;-75
2022/08/26 20:37:54;;;;;;;12.50;5.68;;;;;;;;;;10317635;28;20081;-76
2022/08/26 20:42:57;;;;;;;16.35;5.80;;;;;;;;;;10314805;28;20046;-75
2022/08/26 20:48:00;;;;;;;;;;;;;;;;;;10318631;28;20030;-75
2022/08/26 20:53:04;;;;;;;11.48;4.30;;;;;;;;;;10320521;28;19988;-77
2022/08/26 20:58:07;;;;;;;11.57;4.55;;;;;;;;;;10301835;28;20133;-75
2022/08/26 21:03:10;;;;;;;11.25;4.03;;;;;;;;;;10315629;28;20058;-75
2022/08/26 21:08:14;;;;;;;13.93;6.13;;;;;;;;;;10315192;28;20061;-75
2022/08/26 21:13:17;;;;;;;8.95;4.20;;;;;;;;;;10318103;28;20278;-75
2022/08/26 21:18:20;;;;;;;7.22;3.63;;;;;;;;;;10318516;28;20510;-76
2022/08/26 21:23:24;;;;;;;12.38;4.25;;;;;;;;;;10316040;28;20121;-76
2022/08/26 21:28:30;;;;;;;10.75;4.45;;;;;;;;;;10316125;28;20042;-76
2022/08/26 21:33:34;;;;;;;13.18;4.70;;;;;;;;;;10319179;28;20135;-75
2022/08/26 21:38:37;;;;;;;;;;;;;;;;;;10314916;28;20447;-75
2022/08/26 21:43:44;;;;;;;13.05;4.75;;;;;;;;;;10314464;28;19921;-75
2022/08/26 21:48:51;;;;;;;7.22;3.92;;;;;;;;;;10313051;28;20053;-76
2022/08/26 21:53:55;;;;;;;10.27;4.20;;;;;;;;;;10314940;28;20040;-76
2022/08/26 21:59:04;;;;;;;9.07;4.18;;;;;;;;;;10314040;28;20140;-76
2022/08/26 22:04:12;;;;;;;13.77;5.45;;;;;;;;;;10298775;28;20056;-78
2022/08/26 22:09:17;;;;;;;10.05;4.63;;;;;;;;;;10319418;28;20155;-75
2022/08/26 22:14:26;;;;;;;16.58;6.18;;;;;;;;;;10304878;28;20194;-77
2022/08/26 22:19:33;;;;;;;13.23;5.65;;;;;;;;;;10318124;28;20049;-77
2022/08/26 22:24:51;;;;;;;13.05;4.63;;;;;;;;;;10321932;28;20446;-77
2022/08/26 22:29:59;;;;;;;14.65;5.47;;;;;;;;;;10322331;28;20203;-77
2022/08/26 22:35:06;;;;;;;17.23;6.47;;;;;;;;;;10304676;28;20043;-76
2022/08/26 22:40:32;;;;;;;13.68;5.45;;;;;;;;;;10306899;28;20526;-76
2022/08/26 22:45:44;;;;;;;13.27;6.10;;;;;;;;;;10309286;28;20044;-77
2022/08/26 22:50:50;;;;;;;13.25;6.35;;;;;;;;;;10320824;28;20061;-77
2022/08/26 22:55:55;;;;;;;16.17;5.70;;;;;;;;;;10320741;28;20082;-76
2022/08/26 23:01:06;;;;;;;15.77;6.85;;;;;;;;;;10324603;28;20046;-77
2022/08/26 23:06:31;;;;;;;12.95;6.28;;;;;;;;;;10317930;28;20047;-77
2022/08/26 23:11:38;;;;;;;;;;;;;;;;;;10310852;28;20039;-78
2022/08/26 23:16:48;;;;;;;16.98;6.93;;;;;;;;;;10321304;28;19929;-76
2022/08/26 23:27:13;;;;;;;13.93;5.65;;;;;;;;;;10318240;28;20079;-76
2022/08/26 23:32:21;;;;;;;11.52;5.60;;;;;;;;;;10304417;28;20499;-76
2022/08/26 23:37:33;;;;;;;13.07;5.13;;;;;;;;;;10302811;28;20279;-75
2022/08/26 23:42:37;;;;;;;10.30;4.88;;;;;;;;;;11056242;23;20344;-76
2022/08/26 23:47:41;;;;;;;7.87;4.47;;;;;;;;;;10346989;28;20426;-77
2022/08/26 23:58:17;;;;;;;9.13;4.35;;;;;;;;;;10284849;28;20511;-75
